createdAt,value
2019-05-13T00:00:23.510Z,25.43
2019-05-13T00:02:55.486Z,27.98
2019-05-13T00:05:27.812Z,20.23
2019-05-13T00:08:00.410Z,22.75
2019-05-13T00:10:34.975Z,24.02
2019-05-13T00:13:07.551Z,24.85
2019-05-13T00:15:40.320Z,26.77
2019-05-13T00:18:14.475Z,28.80
2019-05-13T00:20:46.534Z,32.15
2019-05-13T00:23:19.191Z,30.08
2019-05-13T00:25:51.579Z,26.57
2019-05-13T00:28:24.102Z,34.78
2019-05-13T00:30:56.850Z,28.75
2019-05-13T00:33:29.583Z,21.27
2019-05-13T00:36:03.787Z,21.70
2019-05-13T00:38:35.217Z,18.65
2019-05-13T00:41:07.575Z,26.02
2019-05-13T00:43:41.217Z,19.67
2019-05-13T00:46:14.206Z,24.27
2019-05-13T00:48:46.849Z,27.07
2019-05-13T00:51:19.535Z,26.07
2019-05-13T00:53:53.522Z,21.30
2019-05-13T00:56:25.496Z,21.42
2019-05-13T00:58:57.974Z,21.95
2019-05-13T01:01:39.180Z,44.65
2019-05-13T01:04:11.573Z,31.37
2019-05-13T01:06:43.851Z,23.75
2019-05-13T01:09:16.825Z,26.00
2019-05-13T01:11:49.425Z,21.95
2019-05-13T01:14:23.514Z,22.58
2019-05-13T01:16:55.216Z,23.42
2019-05-13T01:19:30.650Z,23.12
2019-05-13T01:22:03.724Z,22.90
2019-05-13T01:24:35.800Z,24.77
2019-05-13T01:27:08.003Z,30.08
2019-05-13T01:32:20.308Z,24.77
2019-05-13T01:34:53.838Z,21.10
2019-05-13T01:37:39.184Z,28.42
2019-05-13T01:40:01.308Z,24.50
2019-05-13T01:42:33.762Z,27.45
2019-05-13T01:45:16.735Z,23.87
2019-05-13T01:47:57.840Z,22.07
2019-05-13T01:50:41.084Z,37.35
2019-05-13T01:53:14.885Z,23.85
2019-05-13T01:55:47.363Z,26.15
2019-05-13T01:58:20.283Z,23.27
2019-05-13T02:01:05.126Z,30.37
2019-05-13T02:03:37.538Z,28.65
2019-05-13T02:06:14.124Z,24.23
2019-05-13T02:08:57.491Z,32.60
2019-05-13T02:11:29.744Z,21.23
2019-05-13T02:14:20.984Z,21.20
2019-05-13T02:16:54.584Z,17.90
2019-05-13T02:19:27.062Z,21.10
2019-05-13T02:22:04.215Z,20.82
2019-05-13T02:24:36.608Z,23.95
2019-05-13T02:27:08.657Z,25.82
2019-05-13T02:29:40.843Z,21.05
2019-05-13T02:32:14.010Z,22.93
2019-05-13T02:34:46.579Z,19.80
2019-05-13T02:37:22.875Z,16.57
2019-05-13T02:39:53.594Z,19.17
2019-05-13T02:42:26.067Z,14.60
2019-05-13T02:44:58.545Z,18.52
2019-05-13T02:47:33.026Z,15.93
2019-05-13T02:50:05.471Z,19.67
2019-05-13T02:52:40.159Z,25.52
2019-05-13T02:55:12.951Z,17.85
2019-05-13T02:57:44.915Z,16.90
2019-05-13T03:00:23.436Z,14.30
2019-05-13T03:02:53.896Z,21.10
2019-05-13T03:05:26.397Z,20.72
2019-05-13T03:07:58.553Z,18.80
2019-05-13T03:10:38.808Z,19.27
2019-05-13T03:13:12.611Z,20.95
2019-05-13T03:15:47.422Z,14.55
2019-05-13T03:18:33.403Z,14.30
2019-05-13T03:21:07.072Z,21.25
2019-05-13T03:23:58.199Z,22.22
2019-05-13T03:26:32.212Z,20.52
2019-05-13T03:29:07.701Z,20.80
2019-05-13T03:31:45.588Z,17.48
2019-05-13T03:34:18.921Z,15.20
2019-05-13T03:36:57.032Z,15.48
2019-05-13T03:39:27.583Z,14.70
2019-05-13T03:42:03.093Z,12.25
2019-05-13T03:44:36.182Z,14.03
2019-05-13T03:47:12.730Z,12.33
2019-05-13T03:49:48.328Z,13.48
2019-05-13T03:52:22.500Z,13.22
2019-05-13T03:55:08.213Z,19.27
2019-05-13T03:57:42.592Z,14.40
2019-05-13T04:00:15.108Z,16.97
2019-05-13T04:02:47.721Z,13.15
2019-05-13T04:05:23.053Z,13.18
2019-05-13T04:07:54.779Z,13.40
2019-05-13T04:10:27.148Z,12.50
2019-05-13T04:12:59.376Z,13.10
2019-05-13T04:15:32.925Z,10.85
2019-05-13T04:18:05.360Z,22.58
2019-05-13T04:20:38.096Z,40.50
2019-05-13T04:23:12.895Z,21.27
2019-05-13T04:25:45.055Z,15.30
2019-05-13T04:28:22.227Z,14.45
2019-05-13T04:30:55.010Z,14.20
2019-05-13T04:33:27.249Z,13.78
2019-05-13T04:36:02.459Z,18.10
2019-05-13T04:38:34.074Z,8.15
2019-05-13T04:41:06.109Z,14.40
2019-05-13T04:43:38.081Z,13.35
2019-05-13T04:46:13.577Z,9.78
2019-05-13T04:49:02.998Z,14.50
2019-05-13T04:51:35.683Z,12.10
2019-05-13T04:54:08.124Z,11.22
2019-05-13T04:56:42.154Z,11.50
2019-05-13T04:59:14.690Z,12.03
2019-05-13T05:01:55.324Z,14.35
2019-05-13T05:04:30.757Z,11.57
2019-05-13T05:07:04.884Z,10.15
2019-05-13T05:10:21.191Z,12.65
2019-05-13T05:15:12.848Z,22.70
2019-05-13T05:18:06.410Z,21.10
2019-05-13T05:20:42.905Z,12.28
2019-05-13T05:23:21.438Z,17.15
2019-05-13T05:28:31.929Z,7.70
2019-05-13T05:31:07.431Z,16.97
2019-05-13T05:34:06.264Z,10.90
2019-05-13T05:36:38.576Z,19.62
2019-05-13T05:39:14.285Z,12.58
2019-05-13T05:41:48.792Z,15.43
2019-05-13T05:44:24.262Z,11.90
2019-05-13T05:47:02.847Z,11.33
2019-05-13T05:49:35.638Z,16.85
2019-05-13T05:52:09.377Z,17.87
2019-05-13T05:54:42.857Z,13.18
2019-05-13T05:57:16.217Z,13.78
2019-05-13T05:59:51.047Z,16.65
2019-05-13T06:02:25.355Z,10.20
2019-05-13T06:05:02.441Z,15.70
2019-05-13T06:07:36.592Z,27.55
2019-05-13T06:10:13.478Z,12.50
2019-05-13T06:12:53.094Z,14.28
2019-05-13T06:15:26.164Z,8.40
2019-05-13T06:17:58.326Z,9.73
2019-05-13T06:20:31.720Z,10.58
2019-05-13T06:23:04.254Z,8.80
2019-05-13T06:25:43.094Z,11.40
2019-05-13T06:28:15.230Z,12.45
2019-05-13T06:31:06.779Z,8.25
2019-05-13T06:33:42.173Z,10.95
2019-05-13T06:36:14.580Z,9.13
2019-05-13T06:38:47.575Z,15.10
2019-05-13T06:41:22.064Z,22.95
2019-05-13T06:44:21.385Z,12.82
2019-05-13T06:46:53.783Z,14.50
2019-05-13T06:49:25.950Z,14.60
2019-05-13T06:51:57.939Z,17.15
2019-05-13T06:54:32.527Z,13.93
2019-05-13T06:57:05.860Z,12.03
2019-05-13T06:59:41.955Z,9.15
2019-05-13T07:02:15.451Z,11.35
2019-05-13T07:04:47.567Z,12.85
2019-05-13T07:07:21.877Z,11.03
2019-05-13T07:09:56.437Z,8.63
2019-05-13T07:12:31.251Z,9.73
2019-05-13T07:15:03.231Z,13.08
2019-05-13T07:17:35.265Z,12.88
2019-05-13T07:20:11.983Z,13.00
2019-05-13T07:22:47.241Z,16.45
2019-05-13T07:25:22.042Z,13.68
2019-05-13T07:27:54.132Z,11.53
2019-05-13T07:30:31.647Z,19.67
2019-05-13T07:33:03.387Z,13.38
2019-05-13T07:35:37.813Z,11.22
2019-05-13T07:38:11.765Z,11.10
2019-05-13T07:40:44.133Z,12.93
2019-05-13T07:43:16.695Z,16.15
2019-05-13T07:45:51.587Z,14.93
2019-05-13T07:48:27.889Z,12.70
2019-05-13T07:51:07.307Z,14.15
2019-05-13T07:53:42.397Z,14.30
2019-05-13T07:56:13.568Z,14.43
2019-05-13T07:58:53.056Z,17.10
2019-05-13T08:01:25.625Z,16.87
2019-05-13T08:03:57.674Z,15.53
2019-05-13T08:06:36.922Z,17.40
2019-05-13T08:09:28.868Z,11.80
2019-05-13T08:12:10.492Z,9.80
2019-05-13T08:14:43.209Z,12.50
2019-05-13T08:17:12.494Z,15.38
2019-05-13T08:19:44.576Z,13.75
2019-05-13T08:22:17.935Z,22.73
2019-05-13T08:24:52.007Z,19.98
2019-05-13T08:27:30.551Z,17.02
2019-05-13T08:29:57.786Z,10.08
2019-05-13T08:32:31.469Z,15.93
2019-05-13T08:35:09.014Z,9.38
2019-05-13T08:37:38.358Z,9.73
2019-05-13T08:40:12.072Z,10.30
2019-05-13T08:42:58.115Z,13.43
2019-05-13T08:45:31.449Z,11.83
2019-05-13T08:48:08.217Z,10.48
2019-05-13T08:50:43.463Z,9.18
2019-05-13T08:53:18.398Z,13.32
2019-05-13T08:55:56.144Z,13.70
2019-05-13T08:58:32.271Z,14.13
2019-05-13T09:01:12.433Z,15.20
2019-05-13T09:03:44.166Z,9.95
2019-05-13T09:06:17.547Z,12.13
2019-05-13T09:08:53.545Z,18.50
2019-05-13T09:11:23.002Z,18.17
2019-05-13T09:13:55.172Z,23.32
2019-05-13T09:16:31.979Z,12.73
2019-05-13T09:19:04.381Z,13.75
2019-05-13T09:21:42.127Z,13.45
2019-05-13T09:24:26.021Z,12.70
2019-05-13T09:26:52.891Z,15.05
2019-05-13T09:29:25.181Z,10.28
2019-05-13T09:31:57.519Z,20.02
2019-05-13T09:34:42.182Z,13.38
2019-05-13T09:37:36.823Z,17.52
2019-05-13T09:40:11.492Z,16.27
2019-05-13T09:42:49.190Z,11.10
2019-05-13T09:45:17.552Z,12.90
2019-05-13T09:47:49.475Z,19.40
2019-05-13T09:50:35.841Z,11.35
2019-05-13T09:53:05.113Z,11.53
2019-05-13T09:55:41.335Z,20.57
2019-05-13T09:58:15.588Z,27.50
2019-05-13T10:00:48.732Z,18.82
2019-05-13T10:03:29.146Z,17.60
2019-05-13T10:05:58.154Z,21.25
2019-05-13T10:08:32.629Z,22.27
2019-05-13T10:11:13.678Z,15.72
2019-05-13T10:13:45.653Z,25.05
2019-05-13T10:16:22.083Z,15.68
2019-05-13T10:18:55.293Z,15.78
2019-05-13T10:21:27.696Z,14.83
2019-05-13T10:23:59.802Z,14.20
2019-05-13T10:26:32.359Z,11.38
2019-05-13T10:29:24.291Z,14.63
2019-05-13T10:31:56.592Z,11.63
2019-05-13T10:34:28.730Z,11.80
2019-05-13T10:37:02.553Z,18.82
2019-05-13T10:39:35.327Z,15.60
2019-05-13T10:42:07.332Z,13.65
2019-05-13T10:44:42.235Z,17.30
2019-05-13T10:47:13.640Z,22.85
2019-05-13T10:49:46.491Z,15.85
2019-05-13T10:52:18.513Z,20.40
2019-05-13T10:54:52.662Z,18.90
2019-05-13T10:57:24.143Z,22.70
2019-05-13T10:59:59.717Z,28.55
2019-05-13T11:02:32.750Z,19.35
2019-05-13T11:05:03.908Z,19.98
2019-05-13T11:07:36.158Z,21.30
2019-05-13T11:10:09.680Z,19.70
2019-05-13T11:12:41.926Z,17.80
2019-05-13T11:15:14.346Z,18.55
2019-05-13T11:17:47.065Z,18.82
2019-05-13T11:20:22.086Z,14.68
2019-05-13T11:22:53.458Z,16.20
2019-05-13T11:25:25.708Z,14.40
2019-05-13T11:27:58.555Z,17.62
2019-05-13T11:30:32.097Z,15.00
2019-05-13T11:33:09.902Z,14.83
2019-05-13T11:35:58.332Z,17.57
2019-05-13T11:38:32.698Z,18.25
2019-05-13T11:41:24.132Z,16.15
2019-05-13T11:46:32.466Z,19.75
2019-05-13T11:49:03.531Z,19.60
2019-05-13T11:51:36.346Z,21.12
2019-05-13T11:54:08.776Z,19.82
2019-05-13T11:56:48.942Z,23.98
2019-05-13T11:59:14.988Z,24.47
2019-05-13T12:01:48.255Z,18.57
2019-05-13T12:04:24.172Z,26.40
2019-05-13T12:06:54.882Z,23.32
2019-05-13T12:09:27.486Z,34.60
2019-05-13T12:12:03.651Z,28.00
2019-05-13T12:14:56.582Z,32.65
2019-05-13T12:17:14.232Z,29.95
2019-05-13T12:19:44.317Z,34.05
2019-05-13T12:22:16.295Z,36.68
2019-05-13T12:24:48.692Z,30.43
2019-05-13T12:27:24.965Z,29.80
2019-05-13T12:29:57.095Z,32.50
2019-05-13T12:32:43.475Z,32.58
2019-05-13T12:35:13.799Z,24.70
2019-05-13T12:37:46.551Z,23.22
2019-05-13T12:40:23.098Z,17.62
2019-05-13T12:42:55.512Z,18.20
2019-05-13T12:45:48.280Z,19.60
2019-05-13T12:48:23.001Z,21.68
2019-05-13T12:50:54.632Z,27.98
2019-05-13T12:53:26.901Z,30.15
2019-05-13T12:56:02.840Z,32.98
2019-05-13T12:58:34.004Z,27.40
2019-05-13T13:01:06.927Z,20.55
2019-05-13T13:03:39.062Z,22.45
2019-05-13T13:06:27.086Z,21.15
2019-05-13T13:08:49.311Z,22.02
2019-05-13T13:11:19.330Z,26.60
2019-05-13T13:13:58.915Z,23.87
2019-05-13T13:16:34.038Z,33.78
2019-05-13T13:19:02.503Z,27.40
2019-05-13T13:21:37.649Z,24.92
2019-05-13T13:24:08.128Z,24.75
2019-05-13T13:26:42.407Z,25.85
2019-05-13T13:29:13.858Z,31.65
2019-05-13T13:31:46.301Z,28.12
2019-05-13T13:34:18.955Z,29.18
2019-05-13T13:36:52.672Z,33.55
2019-05-13T13:39:25.684Z,26.42
2019-05-13T13:41:58.352Z,24.45
2019-05-13T13:44:34.946Z,21.07
2019-05-13T13:47:05.740Z,26.73
2019-05-13T13:49:38.385Z,21.82
2019-05-13T13:52:16.070Z,25.32
2019-05-13T13:54:47.267Z,40.85
2019-05-13T13:57:19.291Z,29.75
2019-05-13T14:02:27.267Z,31.00
2019-05-13T14:05:04.871Z,31.45
2019-05-13T14:06:29.231Z,20.05
2019-05-13T14:07:38.460Z,27.90
2019-05-13T14:10:11.662Z,27.05
2019-05-13T14:12:43.943Z,37.00
2019-05-13T14:15:16.712Z,25.80
2019-05-13T14:17:51.409Z,19.10
2019-05-13T14:20:23.612Z,21.60
2019-05-13T14:22:58.085Z,23.92
2019-05-13T14:25:32.304Z,20.45
2019-05-13T14:28:03.465Z,24.32
2019-05-13T14:30:35.725Z,32.50
2019-05-13T14:33:08.240Z,28.73
2019-05-13T14:35:41.616Z,24.63
2019-05-13T14:38:14.316Z,17.57
2019-05-13T14:40:47.664Z,24.72
2019-05-13T14:43:22.917Z,21.10
2019-05-13T14:45:54.015Z,17.95
2019-05-13T14:48:26.480Z,6.40
2019-05-13T14:50:59.817Z,8.35
2019-05-13T14:53:32.893Z,11.10
2019-05-13T14:56:04.920Z,10.88
2019-05-13T14:58:36.904Z,10.08
2019-05-13T15:01:15.817Z,12.80
2019-05-13T15:03:42.696Z,9.43
2019-05-13T15:06:16.416Z,10.23
2019-05-13T15:08:48.441Z,3.50
2019-05-13T15:11:21.961Z,4.92
2019-05-13T15:13:55.267Z,7.47
2019-05-13T15:16:27.650Z,8.00
2019-05-13T15:19:01.496Z,13.80
2019-05-13T15:21:34.104Z,6.33
2019-05-13T15:24:06.440Z,10.88
2019-05-13T15:26:38.447Z,7.58
2019-05-13T15:29:11.397Z,8.15
2019-05-13T15:31:43.772Z,3.85
2019-05-13T15:34:15.714Z,11.25
2019-05-13T15:36:47.770Z,7.10
2019-05-13T15:39:19.633Z,7.58
2019-05-13T15:41:52.496Z,9.50
2019-05-13T15:44:24.556Z,7.20
2019-05-13T15:46:59.431Z,8.20
2019-05-13T15:49:32.372Z,6.25
2019-05-13T15:52:04.566Z,10.25
2019-05-13T15:54:36.520Z,6.25
2019-05-13T15:57:08.581Z,6.60
2019-05-13T15:59:41.494Z,9.98
2019-05-13T16:02:13.713Z,5.83
2019-05-13T16:04:52.070Z,6.20
2019-05-13T16:07:19.466Z,6.50
2019-05-13T16:09:52.620Z,7.55
2019-05-13T16:12:25.010Z,3.17
2019-05-13T16:14:57.142Z,8.40
2019-05-13T16:17:38.712Z,6.08
2019-05-13T16:20:03.832Z,5.60
2019-05-13T16:22:35.909Z,5.95
2019-05-13T16:25:10.542Z,5.67
2019-05-13T16:27:42.713Z,7.50
2019-05-13T16:30:16.302Z,3.70
2019-05-13T16:32:48.507Z,6.85
2019-05-13T16:35:21.466Z,7.20
2019-05-13T16:37:53.777Z,7.20
2019-05-13T16:40:26.028Z,4.90
2019-05-13T16:42:58.036Z,4.67
2019-05-13T16:45:31.553Z,7.15
2019-05-13T16:48:05.800Z,8.33
2019-05-13T16:50:37.953Z,4.72
2019-05-13T16:53:11.140Z,6.97
2019-05-13T16:55:43.209Z,3.35
2019-05-13T16:58:15.661Z,5.50
2019-05-13T17:00:48.502Z,5.45
2019-05-13T17:03:21.175Z,4.40
2019-05-13T17:05:53.435Z,5.70
2019-05-13T17:08:25.696Z,3.60
2019-05-13T17:10:57.443Z,7.28
2019-05-13T17:13:34.475Z,3.90
2019-05-13T17:16:06.823Z,4.00
2019-05-13T17:18:41.504Z,7.58
2019-05-13T17:21:13.204Z,4.22
2019-05-13T17:23:45.388Z,4.17
2019-05-13T17:26:17.543Z,2.75
2019-05-13T17:28:51.785Z,3.95
2019-05-13T17:31:23.724Z,4.17
2019-05-13T17:33:55.660Z,6.30
2019-05-13T17:36:27.684Z,7.53
2019-05-13T17:39:01.850Z,9.90
2019-05-13T17:41:33.451Z,3.90
2019-05-13T17:44:05.694Z,7.95
2019-05-13T17:46:37.779Z,5.50
2019-05-13T17:49:11.844Z,6.25
2019-05-13T17:51:43.567Z,4.45
2019-05-13T17:54:15.610Z,5.05
2019-05-13T17:56:48.572Z,5.17
2019-05-13T17:59:21.808Z,4.75
2019-05-13T18:01:54.084Z,5.72
2019-05-13T18:04:26.333Z,4.80
2019-05-13T18:07:01.695Z,5.97
2019-05-13T18:09:34.058Z,6.00
2019-05-13T18:12:06.439Z,8.15
2019-05-13T18:14:41.188Z,5.33
2019-05-13T18:17:13.204Z,5.55
2019-05-13T18:19:45.309Z,4.92
2019-05-13T18:22:17.357Z,3.95
2019-05-13T18:24:51.886Z,5.95
2019-05-13T18:27:23.015Z,11.10
2019-05-13T18:29:55.298Z,10.05
2019-05-13T18:32:27.171Z,3.72
2019-05-13T18:35:01.464Z,6.00
2019-05-13T18:37:51.934Z,6.97
2019-05-13T18:40:25.474Z,6.85
2019-05-13T18:43:01.971Z,5.83
2019-05-13T18:45:34.057Z,7.28
2019-05-13T18:48:06.443Z,11.25
2019-05-13T18:50:38.468Z,8.03
2019-05-13T18:53:10.836Z,7.80
2019-05-13T18:55:44.157Z,11.08
2019-05-13T18:58:17.254Z,7.85
2019-05-13T19:00:52.061Z,9.28
2019-05-13T19:03:25.710Z,10.78
2019-05-13T19:05:57.825Z,13.25
2019-05-13T19:08:32.109Z,8.35
2019-05-13T19:11:04.228Z,9.43
2019-05-13T19:13:36.470Z,13.08
2019-05-13T19:16:08.600Z,7.05
2019-05-13T19:18:42.327Z,6.50
2019-05-13T19:21:15.357Z,9.83
2019-05-13T19:23:47.698Z,10.70
2019-05-13T19:26:21.733Z,12.23
2019-05-13T19:28:54.722Z,12.10
2019-05-13T19:31:26.888Z,14.93
2019-05-13T19:34:01.498Z,8.30
2019-05-13T19:36:52.737Z,11.03
2019-05-13T19:39:26.901Z,9.13
2019-05-13T19:41:58.932Z,7.72
2019-05-13T19:44:31.513Z,6.08
2019-05-13T19:47:04.110Z,5.17
2019-05-13T19:49:37.461Z,6.20
2019-05-13T19:52:11.866Z,7.22
2019-05-13T19:54:46.544Z,6.70
2019-05-13T19:57:21.239Z,9.00
2019-05-13T19:59:55.962Z,4.92
2019-05-13T20:02:28.009Z,5.65
2019-05-13T20:05:01.220Z,7.53
2019-05-13T20:07:34.017Z,4.90
2019-05-13T20:10:08.749Z,6.03
2019-05-13T20:12:42.010Z,10.88
2019-05-13T20:15:14.930Z,8.10
2019-05-13T20:17:47.128Z,3.72
2019-05-13T20:20:21.484Z,7.70
2019-05-13T20:22:53.713Z,7.60
2019-05-13T20:25:25.780Z,7.55
2019-05-13T20:28:02.147Z,8.98
2019-05-13T20:30:33.575Z,3.98
2019-05-13T20:33:06.238Z,12.05
2019-05-13T20:35:38.272Z,6.17
2019-05-13T20:38:11.576Z,6.17
2019-05-13T20:40:45.199Z,10.53
2019-05-13T20:43:17.701Z,9.28
2019-05-13T20:45:51.781Z,5.55
2019-05-13T20:48:23.767Z,7.75
2019-05-13T20:50:56.465Z,7.90
2019-05-13T20:53:30.967Z,7.45
2019-05-13T20:56:02.904Z,8.90
2019-05-13T20:58:34.982Z,9.43
2019-05-13T21:01:07.022Z,7.30
2019-05-13T21:03:41.858Z,4.95
2019-05-13T21:06:13.773Z,6.45
2019-05-13T21:08:46.373Z,9.48
2019-05-13T21:11:18.432Z,7.50
2019-05-13T21:13:51.726Z,6.50
2019-05-13T21:16:24.535Z,11.80
2019-05-13T21:18:56.758Z,6.58
2019-05-13T21:21:31.013Z,8.43
2019-05-13T21:24:03.459Z,5.12
2019-05-13T21:26:54.777Z,10.68
2019-05-13T21:29:27.026Z,7.15
2019-05-13T21:32:01.091Z,9.23
2019-05-13T21:34:33.809Z,6.15
2019-05-13T21:37:06.326Z,6.03
2019-05-13T21:39:38.607Z,6.03
2019-05-13T21:42:11.627Z,12.13
2019-05-13T21:44:43.795Z,11.65
2019-05-13T21:47:16.147Z,12.60
2019-05-13T21:49:48.507Z,14.03
2019-05-13T21:52:23.954Z,10.90
2019-05-13T21:54:56.710Z,11.10
2019-05-13T21:57:32.927Z,13.10
2019-05-13T22:00:03.086Z,22.93
2019-05-13T22:02:35.170Z,18.73
2019-05-13T22:05:07.387Z,12.07
2019-05-13T22:07:41.925Z,10.70
2019-05-13T22:10:13.584Z,18.73
2019-05-13T22:12:45.872Z,37.30
2019-05-13T22:15:18.503Z,36.88
2019-05-13T22:17:51.307Z,36.28
2019-05-13T22:20:49.854Z,24.98
2019-05-13T22:23:16.273Z,25.40
2019-05-13T22:25:48.577Z,23.30
2019-05-13T22:28:22.135Z,14.00
2019-05-13T22:30:54.593Z,12.75
2019-05-13T22:33:26.534Z,18.52
2019-05-13T22:35:58.536Z,13.45
2019-05-13T22:38:32.419Z,10.60
2019-05-13T22:41:04.767Z,11.22
2019-05-13T22:43:51.411Z,11.88
2019-05-13T22:46:13.863Z,13.25
2019-05-13T22:48:45.128Z,9.70
2019-05-13T22:51:17.539Z,10.25
2019-05-13T22:53:49.923Z,20.32
2019-05-13T22:56:22.417Z,14.98
2019-05-13T22:58:54.393Z,10.55
2019-05-13T23:01:26.631Z,13.22
2019-05-13T23:03:59.444Z,11.20
2019-05-13T23:06:32.117Z,12.35
2019-05-13T23:09:04.250Z,13.48
2019-05-13T23:11:36.281Z,18.32
2019-05-13T23:14:10.868Z,17.12
2019-05-13T23:16:42.485Z,18.23
2019-05-13T23:19:14.547Z,13.75
2019-05-13T23:21:46.746Z,18.92
2019-05-13T23:24:21.697Z,20.65
2019-05-13T23:26:53.232Z,11.03
2019-05-13T23:29:25.914Z,12.35
2019-05-13T23:31:57.922Z,12.78
2019-05-13T23:34:31.782Z,15.03
2019-05-13T23:37:04.176Z,15.93
2019-05-13T23:39:38.814Z,13.98
2019-05-13T23:42:12.206Z,15.25
2019-05-13T23:44:46.016Z,12.95
2019-05-13T23:47:18.880Z,13.13
2019-05-13T23:49:51.499Z,17.17
2019-05-13T23:52:23.844Z,16.87
2019-05-13T23:54:56.056Z,19.60
2019-05-13T23:57:28.369Z,14.60
